METAR AND TAF INFORMATION
METAR FOR EGLL
ADDS - METARS form results

(2348 UTC 20 April 2018)
Data provider http://aviationweather.gov/adds/metars/
 
METAR text: EGLL 202320Z AUTO 09007KT 6000 NCD 14/11 Q1023 NOSIG
Conditions at: EGLL (LONDON/HEATHROW , GB) observed 2320 UTC 20 April 2018
Temperature: 14.0°C (57°F)
Dewpoint: 11.0°C (52°F) [RH = 82%]
Pressure (altimeter): 30.21 inches Hg (1023.0 mb)
Winds: from the E (90 degrees) at 8 MPH (7 knots; 3.6 m/s)
Visibility: 4 miles (6 km)
Ceiling: at least 12,000 feet AGL
Clouds: sky clear below 12,000 feet AGL
Weather: no significant weather observed at this time

METAR text: EGLL 202250Z AUTO 09006KT 6000 NCD 15/11 Q1023 NOSIG
Conditions at: EGLL (LONDON/HEATHROW , GB) observed 2250 UTC 20 April 2018
Temperature: 15.0°C (59°F)
Dewpoint: 11.0°C (52°F) [RH = 77%]
Pressure (altimeter): 30.21 inches Hg (1023.0 mb)
Winds: from the E (90 degrees) at 7 MPH (6 knots; 3.1 m/s)
Visibility: 4 miles (6 km)
Ceiling: at least 12,000 feet AGL
Clouds: sky clear below 12,000 feet AGL
Weather: no significant weather observed at this time

Forecast for: EGLL (LONDON/HEATHROW , GB)
Text: TAF EGLL 202253Z 2100/2206 07005KT CAVOK
Forecast period: 0000 to 1200 UTC 21 April 2018
Forecast type: FROM: standard forecast or significant change
Winds: from the ENE (70 degrees) at 6 MPH (5 knots; 2.6 m/s)
Visibility: 6 or more miles (10+ km)
Clouds: not forecast
Weather: NSW  (no significant weather)
Forecast for: EGLL (LONDON/HEATHROW , GB)
Text: TAF EGLL 202253Z 2100/2206 07005KT CAVOK
Forecast period: 0000 to 1200 UTC 21 April 2018
Forecast type: FROM: standard forecast or significant change
Winds: from the ENE (70 degrees) at 6 MPH (5 knots; 2.6 m/s)
Visibility: 6 or more miles (10+ km)
Clouds: not forecast
Weather: NSW  (no significant weather)
Forecast for: EGLL (LONDON/HEATHROW , GB)
Text: TAF EGLL 202253Z 2100/2206 07005KT CAVOK
Forecast period: 0000 to 0700 UTC 21 April 2018
Forecast type: TEMPORARY: The following changes expected for less than half the time period
Visibility: 4 miles (7 km)
Weather: no significant weather forecast for this period
Forecast for: EGLL (LONDON/HEATHROW , GB)
Text: TAF EGLL 202253Z 2100/2206 07005KT CAVOK
Forecast period: 0000 to 0700 UTC 21 April 2018
Forecast type: TEMPORARY: The following changes expected for less than half the time period
Visibility: 4 miles (7 km)
Weather: no significant weather forecast for this period
Forecast for: EGLL (LONDON/HEATHROW , GB)
Text: TAF EGLL 202253Z 2100/2206 07005KT CAVOK
Forecast period: 1200 UTC 21 April 2018 to 0600 UTC 22 April 2018
Forecast type: BECOMING: Conditions expected to become as follows by 1500 UTC 21 April 2018
Winds: from the SSE (150 degrees) at 12 MPH (10 knots; 5.2 m/s)
Visibility: 6 or more miles (10+ km)
Weather: NSW  (no significant weather)
Forecast for: EGLL (LONDON/HEATHROW , GB)
Text: TAF EGLL 202253Z 2100/2206 07005KT CAVOK
Forecast period: 1200 UTC 21 April 2018 to 0600 UTC 22 April 2018
Forecast type: BECOMING: Conditions expected to become as follows by 1500 UTC 21 April 2018
Winds: from the SSE (150 degrees) at 12 MPH (10 knots; 5.2 m/s)
Visibility: 6 or more miles (10+ km)
Weather: NSW  (no significant weather)
Forecast for: EGLL (LONDON/HEATHROW , GB)
Text: TAF EGLL 202253Z 2100/2206 07005KT CAVOK
Forecast period: 1800 UTC 21 April 2018 to 0000 UTC 22 April 2018
Forecast type: TEMPORARY: The following changes expected for less than half the time period
Visibility: 4 miles (7 km)
Weather: SHRA  (rain showers)
Forecast for: EGLL (LONDON/HEATHROW , GB)
Text: TAF EGLL 202253Z 2100/2206 07005KT CAVOK
Forecast period: 1800 UTC 21 April 2018 to 0000 UTC 22 April 2018
Forecast type: TEMPORARY: The following changes expected for less than half the time period
Visibility: 4 miles (7 km)
Weather: SHRA  (rain showers)
Forecast for: EGLL (LONDON/HEATHROW , GB)
Text: TAF EGLL 202253Z 2100/2206 07005KT CAVOK
Forecast period: 2000 UTC 21 April 2018 to 0000 UTC 22 April 2018
Forecast type: TEMPORARY: The following changes expected for less than half the time period
Winds: from the SSW (200 degrees) at 17 MPH (15 knots; 7.8 m/s)
gusting to 29 MPH (25 knots; 13.0 m/s)
Visibility: 2.49 miles (4.01 km)
Weather: +SHRA TSGS  (heavy rain showers, small hail or graupel associated with thunderstorm(s))
Forecast for: EGLL (LONDON/HEATHROW , GB)
Text: TAF EGLL 202253Z 2100/2206 07005KT CAVOK
Forecast period: 2000 UTC 21 April 2018 to 0000 UTC 22 April 2018
Forecast type: TEMPORARY: The following changes expected for less than half the time period
Winds: from the SSW (200 degrees) at 17 MPH (15 knots; 7.8 m/s)
gusting to 29 MPH (25 knots; 13.0 m/s)
Visibility: 2.49 miles (4.01 km)
Weather: +SHRA TSGS  (heavy rain showers, small hail or graupel associated with thunderstorm(s))

 AIRPORT MAP

 RUNWAY INFORMATION
Runway 09L Runway length 12799 ft Runway width 164 ft
Runway elevation 79 ft Runway displaced threshold 1007 ft Runway heading 90
Runway 27R Runway length 12799 ft Runway width 164 ft
Runway elevation 78 ft Runway displaced threshold 0 ft Runway heading 270
Runway 09R Runway length 12001 ft Runway width 148 ft
Runway elevation 75 ft Runway displaced threshold 1013 ft Runway heading 90
Runway 27L Runway length 12001 ft Runway width 148 ft
Runway elevation 77 ft Runway displaced threshold 0 ft Runway heading 270

 AIRPORT FREQUENCIES
Type APP Name APP Frequency 119.725 MHZ
Type ATIS Name ATIS Frequency 128.075 MHZ
Type CLD Name CLNC DEL Frequency 121.975 MHZ
Type GND Name GND Frequency 121.7 MHZ
Type TWR Name TWR Frequency 118.475 MHZ

 AIRPORT NEAR NAVIGATION AIDS
Type VOR-DME Name London Frequency 113600 KHZ



v2.6.1